sensor_id;sensor_type;location;lat;lon;timestamp;temperature;humidity
3069;DHT22;1545;51.728;8.796;2023-04-03T00:01:25;1.00;89.60
3069;DHT22;1545;51.728;8.796;2023-04-03T00:03:51;0.90;90.00
3069;DHT22;1545;51.728;8.796;2023-04-03T00:06:17;0.90;90.10
3069;DHT22;1545;51.728;8.796;2023-04-03T00:08:42;0.90;90.10
3069;DHT22;1545;51.728;8.796;2023-04-03T00:11:09;0.80;90.40
3069;DHT22;1545;51.728;8.796;2023-04-03T00:13:35;0.80;90.40
3069;DHT22;1545;51.728;8.796;2023-04-03T00:16:00;0.60;90.30
3069;DHT22;1545;51.728;8.796;2023-04-03T00:18:27;0.60;90.60
3069;DHT22;1545;51.728;8.796;2023-04-03T00:20:52;0.50;90.70
3069;DHT22;1545;51.728;8.796;2023-04-03T00:23:18;0.60;90.80
3069;DHT22;1545;51.728;8.796;2023-04-03T00:25:43;0.60;90.80
3069;DHT22;1545;51.728;8.796;2023-04-03T00:28:09;0.70;91.00
3069;DHT22;1545;51.728;8.796;2023-04-03T00:30:35;0.60;91.00
3069;DHT22;1545;51.728;8.796;2023-04-03T00:33:01;0.70;91.20
3069;DHT22;1545;51.728;8.796;2023-04-03T00:35:27;0.90;90.80
3069;DHT22;1545;51.728;8.796;2023-04-03T00:37:54;0.70;90.60
3069;DHT22;1545;51.728;8.796;2023-04-03T00:40:25;0.40;91.50
3069;DHT22;1545;51.728;8.796;2023-04-03T00:42:56;0.40;91.90
3069;DHT22;1545;51.728;8.796;2023-04-03T00:45:32;0.40;92.00
3069;DHT22;1545;51.728;8.796;2023-04-03T00:47:58;0.40;92.10
3069;DHT22;1545;51.728;8.796;2023-04-03T00:50:26;0.40;92.00
3069;DHT22;1545;51.728;8.796;2023-04-03T00:52:52;0.30;92.40
3069;DHT22;1545;51.728;8.796;2023-04-03T00:55:18;0.30;92.60
3069;DHT22;1545;51.728;8.796;2023-04-03T00:57:45;0.30;92.80
3069;DHT22;1545;51.728;8.796;2023-04-03T01:00:14;0.20;92.80
3069;DHT22;1545;51.728;8.796;2023-04-03T01:02:40;0.20;93.00
3069;DHT22;1545;51.728;8.796;2023-04-03T01:05:06;0.20;93.10
3069;DHT22;1545;51.728;8.796;2023-04-03T01:07:32;0.10;93.20
3069;DHT22;1545;51.728;8.796;2023-04-03T01:10:07;0.00;93.60
3069;DHT22;1545;51.728;8.796;2023-04-03T01:12:36;0.00;93.70
3069;DHT22;1545;51.728;8.796;2023-04-03T01:15:07;0.00;94.00
3069;DHT22;1545;51.728;8.796;2023-04-03T01:20:18;0.00;94.10
3069;DHT22;1545;51.728;8.796;2023-04-03T01:28:07;0.00;93.70
3069;DHT22;1545;51.728;8.796;2023-04-03T01:30:53;-0.10;94.10
3069;DHT22;1545;51.728;8.796;2023-04-03T01:33:21;-0.20;94.70
3069;DHT22;1545;51.728;8.796;2023-04-03T01:35:46;-0.10;94.90
3069;DHT22;1545;51.728;8.796;2023-04-03T01:38:12;-0.10;95.00
3069;DHT22;1545;51.728;8.796;2023-04-03T01:40:37;-0.20;95.20
3069;DHT22;1545;51.728;8.796;2023-04-03T01:43:03;-0.30;95.50
3069;DHT22;1545;51.728;8.796;2023-04-03T01:45:28;-0.30;95.70
3069;DHT22;1545;51.728;8.796;2023-04-03T01:47:54;-0.40;96.20
3069;DHT22;1545;51.728;8.796;2023-04-03T01:50:20;-0.40;96.10
3069;DHT22;1545;51.728;8.796;2023-04-03T01:52:45;-0.40;96.20
3069;DHT22;1545;51.728;8.796;2023-04-03T01:55:11;-0.40;96.10
3069;DHT22;1545;51.728;8.796;2023-04-03T01:57:36;-0.40;96.00
3069;DHT22;1545;51.728;8.796;2023-04-03T02:00:02;-0.40;96.00
3069;DHT22;1545;51.728;8.796;2023-04-03T02:02:28;-0.40;95.90
3069;DHT22;1545;51.728;8.796;2023-04-03T02:04:53;-0.40;95.50
3069;DHT22;1545;51.728;8.796;2023-04-03T02:07:20;-0.40;95.50
3069;DHT22;1545;51.728;8.796;2023-04-03T02:09:45;-0.50;95.50
3069;DHT22;1545;51.728;8.796;2023-04-03T02:12:11;-0.50;95.90
3069;DHT22;1545;51.728;8.796;2023-04-03T02:14:36;-0.50;95.90
3069;DHT22;1545;51.728;8.796;2023-04-03T02:17:02;-0.50;95.90
3069;DHT22;1545;51.728;8.796;2023-04-03T02:19:36;-0.50;96.00
3069;DHT22;1545;51.728;8.796;2023-04-03T02:22:03;-0.50;95.90
3069;DHT22;1545;51.728;8.796;2023-04-03T02:24:29;-0.60;95.70
3069;DHT22;1545;51.728;8.796;2023-04-03T02:26:54;-0.60;95.60
3069;DHT22;1545;51.728;8.796;2023-04-03T02:29:20;-0.60;95.80
3069;DHT22;1545;51.728;8.796;2023-04-03T02:31:45;-0.60;95.70
3069;DHT22;1545;51.728;8.796;2023-04-03T02:34:11;-0.70;95.40
3069;DHT22;1545;51.728;8.796;2023-04-03T02:36:37;-0.60;95.70
3069;DHT22;1545;51.728;8.796;2023-04-03T02:39:03;-0.60;95.50
3069;DHT22;1545;51.728;8.796;2023-04-03T02:41:29;-0.70;95.40
3069;DHT22;1545;51.728;8.796;2023-04-03T02:44:03;-0.50;95.40
3069;DHT22;1545;51.728;8.796;2023-04-03T02:46:29;-0.60;95.00
3069;DHT22;1545;51.728;8.796;2023-04-03T02:48:55;-0.50;94.70
3069;DHT22;1545;51.728;8.796;2023-04-03T02:51:20;-0.50;94.60
3069;DHT22;1545;51.728;8.796;2023-04-03T02:53:46;-0.60;94.60
3069;DHT22;1545;51.728;8.796;2023-04-03T02:56:12;-0.70;94.80
3069;DHT22;1545;51.728;8.796;2023-04-03T02:58:37;-0.80;95.10
3069;DHT22;1545;51.728;8.796;2023-04-03T03:01:04;-0.80;95.00
3069;DHT22;1545;51.728;8.796;2023-04-03T03:03:30;-0.90;95.10
3069;DHT22;1545;51.728;8.796;2023-04-03T03:08:32;-1.10;95.50
3069;DHT22;1545;51.728;8.796;2023-04-03T03:10:57;-1.10;95.60
3069;DHT22;1545;51.728;8.796;2023-04-03T03:13:23;-1.00;95.90
3069;DHT22;1545;51.728;8.796;2023-04-03T03:15:48;-1.10;95.80
3069;DHT22;1545;51.728;8.796;2023-04-03T03:18:14;-1.10;95.90
3069;DHT22;1545;51.728;8.796;2023-04-03T03:20:40;-1.00;96.00
3069;DHT22;1545;51.728;8.796;2023-04-03T03:23:05;-1.10;95.80
3069;DHT22;1545;51.728;8.796;2023-04-03T03:25:31;-1.00;95.80
3069;DHT22;1545;51.728;8.796;2023-04-03T03:27:56;-1.00;95.90
3069;DHT22;1545;51.728;8.796;2023-04-03T03:30:22;-1.00;96.00
3069;DHT22;1545;51.728;8.796;2023-04-03T03:32:47;-0.80;95.80
3069;DHT22;1545;51.728;8.796;2023-04-03T03:35:13;-0.80;95.70
3069;DHT22;1545;51.728;8.796;2023-04-03T03:37:38;-0.80;95.70
3069;DHT22;1545;51.728;8.796;2023-04-03T03:40:04;-0.70;95.50
3069;DHT22;1545;51.728;8.796;2023-04-03T03:42:30;-0.60;95.20
3069;DHT22;1545;51.728;8.796;2023-04-03T03:44:56;-0.60;95.10
3069;DHT22;1545;51.728;8.796;2023-04-03T03:47:21;-0.60;94.70
3069;DHT22;1545;51.728;8.796;2023-04-03T03:49:46;-0.60;94.40
3069;DHT22;1545;51.728;8.796;2023-04-03T03:52:13;-0.60;94.20
3069;DHT22;1545;51.728;8.796;2023-04-03T03:54:38;-0.50;93.90
3069;DHT22;1545;51.728;8.796;2023-04-03T03:57:04;-0.50;93.80
3069;DHT22;1545;51.728;8.796;2023-04-03T03:59:29;-0.50;93.90
3069;DHT22;1545;51.728;8.796;2023-04-03T04:01:55;-0.50;93.90
3069;DHT22;1545;51.728;8.796;2023-04-03T04:04:21;-0.60;94.10
3069;DHT22;1545;51.728;8.796;2023-04-03T04:06:47;-0.60;94.20
3069;DHT22;1545;51.728;8.796;2023-04-03T04:09:12;-0.70;94.50
3069;DHT22;1545;51.728;8.796;2023-04-03T04:11:38;-0.60;94.60
3069;DHT22;1545;51.728;8.796;2023-04-03T04:14:05;-0.50;94.10
3069;DHT22;1545;51.728;8.796;2023-04-03T04:16:30;-0.50;93.90
3069;DHT22;1545;51.728;8.796;2023-04-03T04:18:56;-0.50;94.00
3069;DHT22;1545;51.728;8.796;2023-04-03T04:21:22;-0.50;93.60
3069;DHT22;1545;51.728;8.796;2023-04-03T04:23:47;-0.60;94.00
3069;DHT22;1545;51.728;8.796;2023-04-03T04:26:13;-0.70;94.30
3069;DHT22;1545;51.728;8.796;2023-04-03T04:28:38;-0.70;94.40
3069;DHT22;1545;51.728;8.796;2023-04-03T04:31:04;-0.80;94.60
3069;DHT22;1545;51.728;8.796;2023-04-03T04:33:29;-0.80;94.60
3069;DHT22;1545;51.728;8.796;2023-04-03T04:35:55;-0.90;94.90
3069;DHT22;1545;51.728;8.796;2023-04-03T04:38:21;-0.90;95.10
3069;DHT22;1545;51.728;8.796;2023-04-03T04:40:48;-0.90;95.00
3069;DHT22;1545;51.728;8.796;2023-04-03T04:43:14;-1.00;95.20
3069;DHT22;1545;51.728;8.796;2023-04-03T04:45:40;-1.00;95.20
3069;DHT22;1545;51.728;8.796;2023-04-03T04:48:05;-1.00;95.00
3069;DHT22;1545;51.728;8.796;2023-04-03T04:50:31;-1.00;95.20
3069;DHT22;1545;51.728;8.796;2023-04-03T04:52:57;-1.00;94.90
3069;DHT22;1545;51.728;8.796;2023-04-03T04:55:22;-1.00;95.30
3069;DHT22;1545;51.728;8.796;2023-04-03T04:57:47;-1.00;95.20
3069;DHT22;1545;51.728;8.796;2023-04-03T05:00:14;-1.00;95.30
3069;DHT22;1545;51.728;8.796;2023-04-03T05:02:40;-0.90;95.30
3069;DHT22;1545;51.728;8.796;2023-04-03T05:05:05;-0.90;95.20
3069;DHT22;1545;51.728;8.796;2023-04-03T05:07:31;-0.90;95.30
3069;DHT22;1545;51.728;8.796;2023-04-03T05:09:56;-1.00;95.20
3069;DHT22;1545;51.728;8.796;2023-04-03T05:12:23;-1.00;95.20
3069;DHT22;1545;51.728;8.796;2023-04-03T05:14:48;-1.00;95.40
3069;DHT22;1545;51.728;8.796;2023-04-03T05:17:14;-1.00;95.60
3069;DHT22;1545;51.728;8.796;2023-04-03T05:19:39;-0.90;95.40
3069;DHT22;1545;51.728;8.796;2023-04-03T05:22:05;-0.90;95.40
3069;DHT22;1545;51.728;8.796;2023-04-03T05:24:31;-0.80;95.20
3069;DHT22;1545;51.728;8.796;2023-04-03T05:26:57;-0.80;95.20
3069;DHT22;1545;51.728;8.796;2023-04-03T05:29:23;-0.80;95.30
3069;DHT22;1545;51.728;8.796;2023-04-03T05:31:49;-0.70;94.90
3069;DHT22;1545;51.728;8.796;2023-04-03T05:34:15;-0.70;95.00
3069;DHT22;1545;51.728;8.796;2023-04-03T05:36:41;-0.70;95.10
3069;DHT22;1545;51.728;8.796;2023-04-03T05:39:07;-0.60;94.90
3069;DHT22;1545;51.728;8.796;2023-04-03T05:41:32;-0.60;94.70
3069;DHT22;1545;51.728;8.796;2023-04-03T05:43:57;-0.60;94.70
3069;DHT22;1545;51.728;8.796;2023-04-03T05:46:23;-0.60;94.70
3069;DHT22;1545;51.728;8.796;2023-04-03T05:48:48;-0.50;94.40
3069;DHT22;1545;51.728;8.796;2023-04-03T05:51:25;-0.40;94.40
3069;DHT22;1545;51.728;8.796;2023-04-03T05:53:59;-0.40;94.40
3069;DHT22;1545;51.728;8.796;2023-04-03T05:56:26;-0.40;93.80
3069;DHT22;1545;51.728;8.796;2023-04-03T05:58:51;-0.30;93.60
3069;DHT22;1545;51.728;8.796;2023-04-03T06:01:17;-0.20;93.70
3069;DHT22;1545;51.728;8.796;2023-04-03T06:03:42;-0.20;93.50
3069;DHT22;1545;51.728;8.796;2023-04-03T06:06:08;-0.20;93.70
3069;DHT22;1545;51.728;8.796;2023-04-03T06:08:37;-0.20;93.20
3069;DHT22;1545;51.728;8.796;2023-04-03T06:11:03;-0.20;93.70
3069;DHT22;1545;51.728;8.796;2023-04-03T06:13:29;-0.20;93.40
3069;DHT22;1545;51.728;8.796;2023-04-03T06:15:54;-0.20;93.30
3069;DHT22;1545;51.728;8.796;2023-04-03T06:18:20;-0.10;92.90
3069;DHT22;1545;51.728;8.796;2023-04-03T06:20:46;-0.10;93.50
3069;DHT22;1545;51.728;8.796;2023-04-03T06:23:12;0.10;93.50
3069;DHT22;1545;51.728;8.796;2023-04-03T06:25:37;0.10;92.80
3069;DHT22;1545;51.728;8.796;2023-04-03T06:28:02;0.10;92.60
3069;DHT22;1545;51.728;8.796;2023-04-03T06:30:28;0.20;92.30
3069;DHT22;1545;51.728;8.796;2023-04-03T06:32:53;0.20;91.90
3069;DHT22;1545;51.728;8.796;2023-04-03T06:35:20;0.30;91.90
3069;DHT22;1545;51.728;8.796;2023-04-03T06:37:48;0.30;91.90
3069;DHT22;1545;51.728;8.796;2023-04-03T06:40:19;0.40;91.30
3069;DHT22;1545;51.728;8.796;2023-04-03T06:42:46;0.50;91.30
3069;DHT22;1545;51.728;8.796;2023-04-03T06:45:12;0.50;90.60
3069;DHT22;1545;51.728;8.796;2023-04-03T06:47:37;0.60;90.80
3069;DHT22;1545;51.728;8.796;2023-04-03T06:50:03;0.70;90.30
3069;DHT22;1545;51.728;8.796;2023-04-03T06:52:28;0.70;90.70
3069;DHT22;1545;51.728;8.796;2023-04-03T06:54:54;0.90;90.10
3069;DHT22;1545;51.728;8.796;2023-04-03T06:57:22;0.90;89.30
3069;DHT22;1545;51.728;8.796;2023-04-03T06:59:48;0.90;89.10
3069;DHT22;1545;51.728;8.796;2023-04-03T07:02:14;0.90;88.80
3069;DHT22;1545;51.728;8.796;2023-04-03T07:04:40;1.00;88.00
3069;DHT22;1545;51.728;8.796;2023-04-03T07:07:05;1.10;87.60
3069;DHT22;1545;51.728;8.796;2023-04-03T07:09:31;1.20;86.40
3069;DHT22;1545;51.728;8.796;2023-04-03T07:11:56;1.40;86.10
3069;DHT22;1545;51.728;8.796;2023-04-03T07:14:22;1.40;86.80
3069;DHT22;1545;51.728;8.796;2023-04-03T07:16:47;1.60;87.10
3069;DHT22;1545;51.728;8.796;2023-04-03T07:19:13;1.60;86.40
3069;DHT22;1545;51.728;8.796;2023-04-03T07:21:38;1.70;86.00
3069;DHT22;1545;51.728;8.796;2023-04-03T07:24:04;1.80;85.20
3069;DHT22;1545;51.728;8.796;2023-04-03T07:26:29;2.00;85.60
3069;DHT22;1545;51.728;8.796;2023-04-03T07:28:55;2.10;85.30
3069;DHT22;1545;51.728;8.796;2023-04-03T07:31:21;2.20;83.20
3069;DHT22;1545;51.728;8.796;2023-04-03T07:33:46;2.40;84.00
3069;DHT22;1545;51.728;8.796;2023-04-03T07:36:16;2.40;84.00
3069;DHT22;1545;51.728;8.796;2023-04-03T07:38:42;2.50;81.00
3069;DHT22;1545;51.728;8.796;2023-04-03T07:41:12;2.50;80.80
3069;DHT22;1545;51.728;8.796;2023-04-03T07:43:39;2.70;80.00
3069;DHT22;1545;51.728;8.796;2023-04-03T07:46:05;2.70;79.10
3069;DHT22;1545;51.728;8.796;2023-04-03T07:48:30;2.70;79.60
3069;DHT22;1545;51.728;8.796;2023-04-03T07:50:59;3.00;80.00
3069;DHT22;1545;51.728;8.796;2023-04-03T07:53:25;3.00;79.40
3069;DHT22;1545;51.728;8.796;2023-04-03T07:55:51;3.00;78.50
3069;DHT22;1545;51.728;8.796;2023-04-03T07:58:20;3.40;78.90
3069;DHT22;1545;51.728;8.796;2023-04-03T08:00:46;4.00;78.60
3069;DHT22;1545;51.728;8.796;2023-04-03T08:03:13;4.70;77.10
3069;DHT22;1545;51.728;8.796;2023-04-03T08:05:40;5.60;75.40
3069;DHT22;1545;51.728;8.796;2023-04-03T08:08:07;6.30;72.70
3069;DHT22;1545;51.728;8.796;2023-04-03T08:10:32;6.80;67.40
3069;DHT22;1545;51.728;8.796;2023-04-03T08:12:59;6.80;66.40
3069;DHT22;1545;51.728;8.796;2023-04-03T08:15:24;7.10;64.70
3069;DHT22;1545;51.728;8.796;2023-04-03T08:17:50;6.70;67.00
3069;DHT22;1545;51.728;8.796;2023-04-03T08:20:17;5.80;69.20
3069;DHT22;1545;51.728;8.796;2023-04-03T08:22:42;5.70;69.10
3069;DHT22;1545;51.728;8.796;2023-04-03T08:25:08;5.70;68.10
3069;DHT22;1545;51.728;8.796;2023-04-03T08:27:34;5.80;67.60
3069;DHT22;1545;51.728;8.796;2023-04-03T08:29:59;7.10;62.70
3069;DHT22;1545;51.728;8.796;2023-04-03T08:32:25;8.10;61.20
3069;DHT22;1545;51.728;8.796;2023-04-03T08:34:51;8.20;59.40
3069;DHT22;1545;51.728;8.796;2023-04-03T08:37:16;8.40;61.40
3069;DHT22;1545;51.728;8.796;2023-04-03T08:39:42;9.20;57.80
3069;DHT22;1545;51.728;8.796;2023-04-03T08:42:30;9.20;58.80
3069;DHT22;1545;51.728;8.796;2023-04-03T08:45:12;9.00;58.80
3069;DHT22;1545;51.728;8.796;2023-04-03T08:47:51;9.20;60.40
3069;DHT22;1545;51.728;8.796;2023-04-03T08:50:20;9.10;59.10
3069;DHT22;1545;51.728;8.796;2023-04-03T08:52:51;8.10;61.40
3069;DHT22;1545;51.728;8.796;2023-04-03T08:55:23;9.00;57.80
3069;DHT22;1545;51.728;8.796;2023-04-03T08:58:01;8.90;58.90
3069;DHT22;1545;51.728;8.796;2023-04-03T09:00:51;8.10;59.60
3069;DHT22;1545;51.728;8.796;2023-04-03T09:03:17;7.60;62.60
3069;DHT22;1545;51.728;8.796;2023-04-03T09:05:55;6.80;61.20
3069;DHT22;1545;51.728;8.796;2023-04-03T09:10:58;7.70;60.70
3069;DHT22;1545;51.728;8.796;2023-04-03T09:14:02;8.00;61.50
3069;DHT22;1545;51.728;8.796;2023-04-03T09:16:48;6.60;59.50
3069;DHT22;1545;51.728;8.796;2023-04-03T09:19:38;6.70;63.90
3069;DHT22;1545;51.728;8.796;2023-04-03T09:22:20;7.10;61.40
3069;DHT22;1545;51.728;8.796;2023-04-03T09:24:52;7.40;60.60
3069;DHT22;1545;51.728;8.796;2023-04-03T09:27:21;7.20;65.50
3069;DHT22;1545;51.728;8.796;2023-04-03T09:29:47;6.50;65.70
3069;DHT22;1545;51.728;8.796;2023-04-03T09:32:31;7.10;66.30
3069;DHT22;1545;51.728;8.796;2023-04-03T09:35:21;6.90;65.00
3069;DHT22;1545;51.728;8.796;2023-04-03T09:37:51;7.00;64.00
3069;DHT22;1545;51.728;8.796;2023-04-03T09:42:57;7.20;61.60
3069;DHT22;1545;51.728;8.796;2023-04-03T09:50:33;6.00;67.60
3069;DHT22;1545;51.728;8.796;2023-04-03T09:53:05;5.60;69.00
3069;DHT22;1545;51.728;8.796;2023-04-03T09:55:32;5.70;69.40
3069;DHT22;1545;51.728;8.796;2023-04-03T09:58:03;5.50;71.10
3069;DHT22;1545;51.728;8.796;2023-04-03T10:00:36;5.50;72.00
3069;DHT22;1545;51.728;8.796;2023-04-03T10:03:04;5.40;66.80
3069;DHT22;1545;51.728;8.796;2023-04-03T10:05:41;5.60;73.80
3069;DHT22;1545;51.728;8.796;2023-04-03T10:08:19;5.50;69.50
3069;DHT22;1545;51.728;8.796;2023-04-03T10:11:15;5.40;69.60
3069;DHT22;1545;51.728;8.796;2023-04-03T10:13:59;6.00;73.90
3069;DHT22;1545;51.728;8.796;2023-04-03T10:21:46;5.70;69.30
3069;DHT22;1545;51.728;8.796;2023-04-03T10:24:23;5.60;67.40
3069;DHT22;1545;51.728;8.796;2023-04-03T10:26:58;5.40;68.70
3069;DHT22;1545;51.728;8.796;2023-04-03T10:29:46;5.30;69.60
3069;DHT22;1545;51.728;8.796;2023-04-03T10:32:40;5.40;67.00
3069;DHT22;1545;51.728;8.796;2023-04-03T10:35:19;5.40;70.00
3069;DHT22;1545;51.728;8.796;2023-04-03T10:38:24;5.00;67.30
3069;DHT22;1545;51.728;8.796;2023-04-03T10:43:36;5.60;67.80
3069;DHT22;1545;51.728;8.796;2023-04-03T10:46:15;5.90;65.20
3069;DHT22;1545;51.728;8.796;2023-04-03T10:49:10;6.20;63.60
3069;DHT22;1545;51.728;8.796;2023-04-03T10:57:02;7.10;65.40
3069;DHT22;1545;51.728;8.796;2023-04-03T10:59:44;7.00;68.20
3069;DHT22;1545;51.728;8.796;2023-04-03T11:04:51;6.30;65.80
3069;DHT22;1545;51.728;8.796;2023-04-03T11:07:33;6.50;68.10
3069;DHT22;1545;51.728;8.796;2023-04-03T11:10:08;5.80;67.10
3069;DHT22;1545;51.728;8.796;2023-04-03T11:15:20;5.20;67.60
3069;DHT22;1545;51.728;8.796;2023-04-03T11:17:51;6.00;70.10
3069;DHT22;1545;51.728;8.796;2023-04-03T11:20:26;6.10;67.50
3069;DHT22;1545;51.728;8.796;2023-04-03T11:23:08;6.70;68.90
3069;DHT22;1545;51.728;8.796;2023-04-03T11:25:40;6.80;64.20
3069;DHT22;1545;51.728;8.796;2023-04-03T11:28:12;6.20;65.60
3069;DHT22;1545;51.728;8.796;2023-04-03T11:36:24;5.60;67.80
3069;DHT22;1545;51.728;8.796;2023-04-03T11:38:54;5.30;67.30
3069;DHT22;1545;51.728;8.796;2023-04-03T11:41:47;5.50;69.90
3069;DHT22;1545;51.728;8.796;2023-04-03T11:44:37;5.50;69.20
3069;DHT22;1545;51.728;8.796;2023-04-03T11:47:05;5.70;67.20
3069;DHT22;1545;51.728;8.796;2023-04-03T12:05:57;6.20;70.70
3069;DHT22;1545;51.728;8.796;2023-04-03T12:16:22;6.50;67.60
3069;DHT22;1545;51.728;8.796;2023-04-03T12:21:15;6.10;66.00
3069;DHT22;1545;51.728;8.796;2023-04-03T12:24:04;6.10;65.90
3069;DHT22;1545;51.728;8.796;2023-04-03T12:27:02;6.20;68.60
3069;DHT22;1545;51.728;8.796;2023-04-03T12:35:43;6.80;65.60
3069;DHT22;1545;51.728;8.796;2023-04-03T12:38:33;6.50;68.90
3069;DHT22;1545;51.728;8.796;2023-04-03T12:41:15;6.60;66.80
3069;DHT22;1545;51.728;8.796;2023-04-03T12:46:44;6.50;67.10
3069;DHT22;1545;51.728;8.796;2023-04-03T12:49:40;6.50;65.30
3069;DHT22;1545;51.728;8.796;2023-04-03T12:52:30;6.60;66.50
3069;DHT22;1545;51.728;8.796;2023-04-03T12:54:57;7.20;67.90
3069;DHT22;1545;51.728;8.796;2023-04-03T12:57:25;7.50;64.60
3069;DHT22;1545;51.728;8.796;2023-04-03T12:59:52;7.60;62.80
3069;DHT22;1545;51.728;8.796;2023-04-03T13:02:28;7.90;64.90
3069;DHT22;1545;51.728;8.796;2023-04-03T13:04:58;7.40;68.70
3069;DHT22;1545;51.728;8.796;2023-04-03T13:07:31;7.30;62.50
3069;DHT22;1545;51.728;8.796;2023-04-03T13:10:15;6.70;66.00
3069;DHT22;1545;51.728;8.796;2023-04-03T13:12:55;6.50;68.40
3069;DHT22;1545;51.728;8.796;2023-04-03T13:17:52;6.50;66.60
3069;DHT22;1545;51.728;8.796;2023-04-03T13:20:25;6.60;67.90
3069;DHT22;1545;51.728;8.796;2023-04-03T13:23:04;6.70;68.90
3069;DHT22;1545;51.728;8.796;2023-04-03T13:25:33;6.70;66.10
3069;DHT22;1545;51.728;8.796;2023-04-03T13:28:00;6.80;68.00
3069;DHT22;1545;51.728;8.796;2023-04-03T13:30:30;6.80;63.50
3069;DHT22;1545;51.728;8.796;2023-04-03T13:32:58;6.70;63.20
3069;DHT22;1545;51.728;8.796;2023-04-03T13:35:42;6.30;64.50
3069;DHT22;1545;51.728;8.796;2023-04-03T13:40:54;6.80;64.50
3069;DHT22;1545;51.728;8.796;2023-04-03T13:43:24;7.00;67.30
3069;DHT22;1545;51.728;8.796;2023-04-03T13:45:56;6.70;66.20
3069;DHT22;1545;51.728;8.796;2023-04-03T13:48:22;6.70;66.70
3069;DHT22;1545;51.728;8.796;2023-04-03T13:51:00;7.00;64.40
3069;DHT22;1545;51.728;8.796;2023-04-03T13:53:27;7.00;65.10
3069;DHT22;1545;51.728;8.796;2023-04-03T13:56:09;7.00;61.10
3069;DHT22;1545;51.728;8.796;2023-04-03T13:58:36;6.50;63.10
3069;DHT22;1545;51.728;8.796;2023-04-03T14:04:26;7.60;61.70
3069;DHT22;1545;51.728;8.796;2023-04-03T14:06:53;7.70;63.20
3069;DHT22;1545;51.728;8.796;2023-04-03T14:09:20;6.90;64.10
3069;DHT22;1545;51.728;8.796;2023-04-03T14:11:48;6.70;67.20
3069;DHT22;1545;51.728;8.796;2023-04-03T14:14:20;6.40;64.30
3069;DHT22;1545;51.728;8.796;2023-04-03T14:16:51;6.40;64.10
3069;DHT22;1545;51.728;8.796;2023-04-03T14:19:24;6.70;66.40
3069;DHT22;1545;51.728;8.796;2023-04-03T14:21:51;7.00;64.70
3069;DHT22;1545;51.728;8.796;2023-04-03T14:24:18;6.70;62.30
3069;DHT22;1545;51.728;8.796;2023-04-03T14:26:44;6.70;64.30
3069;DHT22;1545;51.728;8.796;2023-04-03T14:29:11;6.80;63.20
3069;DHT22;1545;51.728;8.796;2023-04-03T14:31:37;6.90;63.60
3069;DHT22;1545;51.728;8.796;2023-04-03T14:34:03;7.20;63.70
3069;DHT22;1545;51.728;8.796;2023-04-03T14:36:29;7.50;62.40
3069;DHT22;1545;51.728;8.796;2023-04-03T14:38:57;7.40;63.70
3069;DHT22;1545;51.728;8.796;2023-04-03T14:41:25;7.80;64.00
3069;DHT22;1545;51.728;8.796;2023-04-03T14:43:52;7.70;60.60
3069;DHT22;1545;51.728;8.796;2023-04-03T14:46:24;8.00;64.10
3069;DHT22;1545;51.728;8.796;2023-04-03T14:48:51;8.20;61.70
3069;DHT22;1545;51.728;8.796;2023-04-03T14:51:16;7.50;62.20
3069;DHT22;1545;51.728;8.796;2023-04-03T14:53:43;7.20;63.40
3069;DHT22;1545;51.728;8.796;2023-04-03T14:56:22;6.60;65.90
3069;DHT22;1545;51.728;8.796;2023-04-03T14:58:49;6.20;66.20
3069;DHT22;1545;51.728;8.796;2023-04-03T15:01:17;6.20;67.10
3069;DHT22;1545;51.728;8.796;2023-04-03T15:03:43;6.50;66.20
3069;DHT22;1545;51.728;8.796;2023-04-03T15:06:11;6.70;65.00
3069;DHT22;1545;51.728;8.796;2023-04-03T15:08:37;6.50;65.30
3069;DHT22;1545;51.728;8.796;2023-04-03T15:11:02;6.20;65.30
3069;DHT22;1545;51.728;8.796;2023-04-03T15:13:28;6.00;65.40
3069;DHT22;1545;51.728;8.796;2023-04-03T15:15:53;6.30;64.80
3069;DHT22;1545;51.728;8.796;2023-04-03T15:18:25;6.50;64.60
3069;DHT22;1545;51.728;8.796;2023-04-03T15:20:52;6.80;65.60
3069;DHT22;1545;51.728;8.796;2023-04-03T15:23:18;7.10;65.70
3069;DHT22;1545;51.728;8.796;2023-04-03T15:25:45;6.80;64.90
3069;DHT22;1545;51.728;8.796;2023-04-03T15:28:19;7.00;66.40
3069;DHT22;1545;51.728;8.796;2023-04-03T15:30:46;7.00;66.10
3069;DHT22;1545;51.728;8.796;2023-04-03T15:33:12;6.70;62.20
3069;DHT22;1545;51.728;8.796;2023-04-03T15:35:37;6.60;63.40
3069;DHT22;1545;51.728;8.796;2023-04-03T15:38:03;6.70;63.80
3069;DHT22;1545;51.728;8.796;2023-04-03T15:40:28;6.60;63.90
3069;DHT22;1545;51.728;8.796;2023-04-03T15:42:54;6.80;63.50
3069;DHT22;1545;51.728;8.796;2023-04-03T15:45:19;6.60;62.10
3069;DHT22;1545;51.728;8.796;2023-04-03T15:47:46;6.20;63.20
3069;DHT22;1545;51.728;8.796;2023-04-03T15:50:11;6.50;65.80
3069;DHT22;1545;51.728;8.796;2023-04-03T15:52:37;6.70;64.40
3069;DHT22;1545;51.728;8.796;2023-04-03T15:55:03;6.50;62.70
3069;DHT22;1545;51.728;8.796;2023-04-03T15:57:29;6.50;62.40
3069;DHT22;1545;51.728;8.796;2023-04-03T15:59:55;6.70;63.90
3069;DHT22;1545;51.728;8.796;2023-04-03T16:02:20;6.60;64.30
3069;DHT22;1545;51.728;8.796;2023-04-03T16:04:46;6.60;62.80
3069;DHT22;1545;51.728;8.796;2023-04-03T16:07:12;6.80;62.60
3069;DHT22;1545;51.728;8.796;2023-04-03T16:09:37;6.60;63.30
3069;DHT22;1545;51.728;8.796;2023-04-03T16:12:03;6.50;64.20
3069;DHT22;1545;51.728;8.796;2023-04-03T16:14:29;6.30;63.80
3069;DHT22;1545;51.728;8.796;2023-04-03T16:16:56;6.30;66.00
3069;DHT22;1545;51.728;8.796;2023-04-03T16:19:22;6.10;64.00
3069;DHT22;1545;51.728;8.796;2023-04-03T16:21:48;6.30;65.00
3069;DHT22;1545;51.728;8.796;2023-04-03T16:24:14;6.30;62.30
3069;DHT22;1545;51.728;8.796;2023-04-03T16:26:39;6.20;62.00
3069;DHT22;1545;51.728;8.796;2023-04-03T16:29:05;6.10;61.90
3069;DHT22;1545;51.728;8.796;2023-04-03T16:31:32;6.00;63.00
3069;DHT22;1545;51.728;8.796;2023-04-03T16:33:58;5.80;63.60
3069;DHT22;1545;51.728;8.796;2023-04-03T16:36:25;5.90;64.20
3069;DHT22;1545;51.728;8.796;2023-04-03T16:38:51;5.80;65.40
3069;DHT22;1545;51.728;8.796;2023-04-03T16:41:16;5.70;64.00
3069;DHT22;1545;51.728;8.796;2023-04-03T16:43:42;5.60;64.80
3069;DHT22;1545;51.728;8.796;2023-04-03T16:46:07;5.60;64.20
3069;DHT22;1545;51.728;8.796;2023-04-03T16:48:33;5.70;65.50
3069;DHT22;1545;51.728;8.796;2023-04-03T16:51:00;5.90;66.50
3069;DHT22;1545;51.728;8.796;2023-04-03T16:53:26;6.00;66.10
3069;DHT22;1545;51.728;8.796;2023-04-03T16:55:53;5.80;65.10
3069;DHT22;1545;51.728;8.796;2023-04-03T16:58:18;5.80;66.40
3069;DHT22;1545;51.728;8.796;2023-04-03T17:00:44;5.80;66.30
3069;DHT22;1545;51.728;8.796;2023-04-03T17:03:10;5.80;65.90
3069;DHT22;1545;51.728;8.796;2023-04-03T17:05:36;5.80;67.40
3069;DHT22;1545;51.728;8.796;2023-04-03T17:08:01;5.80;67.10
3069;DHT22;1545;51.728;8.796;2023-04-03T17:10:28;5.70;67.50
3069;DHT22;1545;51.728;8.796;2023-04-03T17:12:53;5.50;69.00
3069;DHT22;1545;51.728;8.796;2023-04-03T17:15:19;5.30;67.00
3069;DHT22;1545;51.728;8.796;2023-04-03T17:17:46;5.30;67.40
3069;DHT22;1545;51.728;8.796;2023-04-03T17:20:13;5.30;69.60
3069;DHT22;1545;51.728;8.796;2023-04-03T17:22:39;5.20;65.80
3069;DHT22;1545;51.728;8.796;2023-04-03T17:25:05;5.20;66.20
3069;DHT22;1545;51.728;8.796;2023-04-03T17:27:30;5.20;68.00
3069;DHT22;1545;51.728;8.796;2023-04-03T17:29:56;5.10;68.00
3069;DHT22;1545;51.728;8.796;2023-04-03T17:32:21;5.00;67.30
3069;DHT22;1545;51.728;8.796;2023-04-03T17:34:48;4.90;68.30
3069;DHT22;1545;51.728;8.796;2023-04-03T17:37:13;4.90;68.60
3069;DHT22;1545;51.728;8.796;2023-04-03T17:39:39;4.80;71.10
3069;DHT22;1545;51.728;8.796;2023-04-03T17:42:04;4.70;68.90
3069;DHT22;1545;51.728;8.796;2023-04-03T17:44:30;4.80;68.10
3069;DHT22;1545;51.728;8.796;2023-04-03T17:46:55;4.70;72.20
3069;DHT22;1545;51.728;8.796;2023-04-03T17:49:21;4.60;69.30
3069;DHT22;1545;51.728;8.796;2023-04-03T17:51:47;4.50;71.70